KCAG

Details ICAO KCAG
Name CRAIG MOFFAT
Region United States
Timezone America/Denver (UTC-7.0)
Plans Departing 0
Arriving 1
Stats Elevation 6,193 ft / 1,888 m (AMSL)
Location 40.495210° -107.521661°
Runways 1
Magnetic Variation 9.546° E
Sunrise 2017-12-14 14:27:15 UTC / 2017-12-14 07:27:15 Local
Sunset 2017-12-14 23:45:22 UTC / 2017-12-14 16:45:22 Local
Advertisement - Login to hide

Runways

ID Width Length Bearing (true) Bearing (mag) Surface Threshold Offset Overrun Length
07 100 ft / 30 m 5,592 ft / 1,705 m 82.94° 73.39° Asphalt 0 ft / 0 m 0 ft / 0 m
25 100 ft / 30 m 5,592 ft / 1,705 m 262.96° 253.41° Asphalt 0 ft / 0 m 0 ft / 0 m

Map

Weather


0- 5 10 15 20 25 30 35+ Temperature / ° C

Clouds and Precipitation
Forecast for 2017-12-15 00:00 UTC. Updated 2 hours ago

Ground ~20,000 ft ~40,000 ft Winds

METAR

KCAG 142053Z AUTO 33009KT 10SM SCT055 01/M08 A3033 RMK AO2 SLP294 T00111083 55002

TAF

Not found

Frequencies

Recorded 135.42 MHz ASOS
Unicom 122.80 MHz CTAF/UNICOM
Warning: Do not use this data for real-world aviation or navigation. No guarantee of current accuracy is given.